createdAt,value
2018-02-16T00:01:21.810Z,50.07
2018-02-16T00:07:26.336Z,47.80
2018-02-16T00:13:30.862Z,43.53
2018-02-16T00:19:35.402Z,45.10
2018-02-16T00:25:40.718Z,60.17
2018-02-16T00:31:45.253Z,53.17
2018-02-16T00:37:49.827Z,48.00
2018-02-16T00:43:54.746Z,44.90
2018-02-16T00:50:00.148Z,53.17
2018-02-16T00:56:04.659Z,52.40
2018-02-16T01:02:09.254Z,50.77
2018-02-16T01:08:13.725Z,50.53
2018-02-16T01:14:18.227Z,46.10
2018-02-16T01:20:23.022Z,46.47
2018-02-16T01:26:28.271Z,45.47
2018-02-16T01:32:32.911Z,53.70
2018-02-16T01:38:37.509Z,54.53
2018-02-16T01:44:42.631Z,59.87
2018-02-16T01:50:47.114Z,52.63
2018-02-16T01:56:51.888Z,48.50
2018-02-16T02:02:56.460Z,70.50
2018-02-16T02:09:00.974Z,62.70
2018-02-16T02:15:05.648Z,51.90
2018-02-16T02:21:10.123Z,62.70
2018-02-16T02:27:14.618Z,70.23
2018-02-16T02:33:19.511Z,63.30
2018-02-16T02:39:24.433Z,57.67
2018-02-16T02:45:29.043Z,57.17
2018-02-16T02:51:33.514Z,60.13
2018-02-16T02:57:38.055Z,74.27
2018-02-16T03:03:42.630Z,65.37
2018-02-16T03:09:47.116Z,57.23
2018-02-16T03:15:52.235Z,87.20
2018-02-16T03:21:56.925Z,84.60
2018-02-16T03:28:02.268Z,98.07
2018-02-16T03:34:07.604Z,65.70
2018-02-16T03:40:12.184Z,74.57
2018-02-16T03:46:16.739Z,60.27
2018-02-16T03:52:22.781Z,60.13
2018-02-16T03:58:27.397Z,62.00
2018-02-16T04:04:31.927Z,80.37
2018-02-16T04:10:36.476Z,97.73
2018-02-16T04:16:41.148Z,98.83
2018-02-16T04:22:46.160Z,83.07
2018-02-16T04:28:51.489Z,72.40
2018-02-16T04:34:56.276Z,64.57
2018-02-16T04:41:00.845Z,84.23
2018-02-16T04:47:05.406Z,76.27
2018-02-16T04:53:09.991Z,73.33
2018-02-16T04:59:14.462Z,87.17
2018-02-16T05:05:19.081Z,58.47
2018-02-16T05:11:24.404Z,67.03
2018-02-16T05:17:28.878Z,68.10
2018-02-16T05:23:34.345Z,81.80
2018-02-16T05:29:38.864Z,73.83
2018-02-16T05:35:43.505Z,75.70
2018-02-16T05:41:48.087Z,73.17
2018-02-16T05:47:53.958Z,79.80
2018-02-16T05:53:58.634Z,76.07
2018-02-16T06:00:03.892Z,62.70
2018-02-16T06:06:08.385Z,77.00
2018-02-16T06:12:12.935Z,62.30
2018-02-16T06:18:17.429Z,73.20
2018-02-16T06:24:22.564Z,75.77
2018-02-16T06:30:27.078Z,70.90
2018-02-16T06:36:31.652Z,74.33
2018-02-16T06:42:36.176Z,70.10
2018-02-16T06:48:41.871Z,83.60
2018-02-16T06:54:46.383Z,72.57
2018-02-16T07:00:51.301Z,53.57
2018-02-16T07:06:56.646Z,53.97
2018-02-16T07:13:01.891Z,63.53
2018-02-16T07:19:06.463Z,61.83
2018-02-16T07:25:11.167Z,46.30
2018-02-16T07:31:16.877Z,55.67
2018-02-16T07:37:21.505Z,47.30
2018-02-16T07:43:26.751Z,60.00
2018-02-16T07:49:31.240Z,58.27
2018-02-16T07:55:35.767Z,56.27
2018-02-16T08:01:40.234Z,47.00
2018-02-16T08:07:44.742Z,52.67
2018-02-16T08:13:49.354Z,46.43
2018-02-16T08:19:54.486Z,43.77
2018-02-16T08:25:59.150Z,46.20
2018-02-16T08:32:04.391Z,37.90
2018-02-16T08:38:09.797Z,43.47
2018-02-16T08:44:14.273Z,44.80
2018-02-16T08:50:18.822Z,39.70
2018-02-16T08:56:23.752Z,39.97
2018-02-16T09:02:28.252Z,39.77
2018-02-16T09:08:32.750Z,38.80
2018-02-16T09:14:37.995Z,49.20
2018-02-16T09:20:42.710Z,37.30
2018-02-16T09:26:48.030Z,39.53
2018-02-16T09:32:53.216Z,36.23
2018-02-16T09:39:00.093Z,35.73
2018-02-16T09:45:04.811Z,32.20
2018-02-16T09:51:09.335Z,37.37
2018-02-16T09:57:13.857Z,34.10
2018-02-16T10:03:18.336Z,31.00
2018-02-16T10:09:22.846Z,34.07
2018-02-16T10:15:27.349Z,29.60
2018-02-16T10:21:31.815Z,37.73
2018-02-16T10:27:36.391Z,51.47
2018-02-16T10:33:42.501Z,40.97
2018-02-16T10:39:47.009Z,36.33
2018-02-16T10:45:52.681Z,31.03
2018-02-16T10:51:57.931Z,35.40
2018-02-16T10:58:02.462Z,41.20
2018-02-16T11:04:07.029Z,32.97
2018-02-16T11:10:12.288Z,34.37
2018-02-16T11:16:16.813Z,42.20
2018-02-16T11:22:22.093Z,40.30
2018-02-16T11:28:26.558Z,27.53
2018-02-16T11:34:31.035Z,23.40
2018-02-16T11:40:36.297Z,30.60
2018-02-16T11:46:40.766Z,15.77
2018-02-16T11:52:45.240Z,22.93
2018-02-16T11:58:49.810Z,13.80
2018-02-16T12:04:55.131Z,16.40
2018-02-16T12:10:59.790Z,15.43
2018-02-16T12:17:04.309Z,30.40
2018-02-16T12:23:08.785Z,19.23
2018-02-16T12:29:13.408Z,19.60
2018-02-16T12:35:18.027Z,28.90
2018-02-16T12:41:22.531Z,20.03
2018-02-16T12:47:27.808Z,14.93
2018-02-16T12:53:32.297Z,23.33
2018-02-16T12:59:36.769Z,15.83
2018-02-16T13:05:41.259Z,17.73
2018-02-16T13:11:45.817Z,13.80
2018-02-16T13:17:50.820Z,23.17
2018-02-16T13:23:55.329Z,16.03
2018-02-16T13:29:59.849Z,11.90
2018-02-16T13:36:04.340Z,11.73
2018-02-16T13:42:08.848Z,23.07
2018-02-16T13:48:14.114Z,18.33
2018-02-16T13:54:19.642Z,25.77
2018-02-16T14:00:24.262Z,27.50
2018-02-16T14:06:28.766Z,14.00
2018-02-16T14:12:33.336Z,17.93
2018-02-16T14:18:37.833Z,15.80
2018-02-16T14:24:42.351Z,14.67
2018-02-16T14:30:47.690Z,15.93
2018-02-16T14:36:52.553Z,24.63
2018-02-16T14:42:57.017Z,17.30
2018-02-16T14:49:02.258Z,27.53
2018-02-16T14:55:06.753Z,21.17
2018-02-16T15:01:11.230Z,21.70
2018-02-16T15:07:15.730Z,14.07
2018-02-16T15:13:20.694Z,13.73
2018-02-16T15:19:25.173Z,12.90
2018-02-16T15:25:30.442Z,17.13
2018-02-16T15:31:34.936Z,26.63
2018-02-16T15:37:38.694Z,26.17
2018-02-16T15:43:42.958Z,26.60
2018-02-16T15:49:48.310Z,31.60
2018-02-16T15:55:52.780Z,29.50
2018-02-16T16:01:58.084Z,38.73
2018-02-16T16:08:02.854Z,15.73
2018-02-16T16:14:08.153Z,15.80
2018-02-16T16:20:13.415Z,18.00
2018-02-16T16:26:18.023Z,13.00
2018-02-16T16:32:23.822Z,19.30
2018-02-16T16:38:28.367Z,13.67
2018-02-16T16:44:32.840Z,15.87
2018-02-16T16:50:37.360Z,17.60
2018-02-16T16:56:41.783Z,18.27
2018-02-16T17:02:46.253Z,24.47
2018-02-16T17:08:51.509Z,16.50
2018-02-16T17:14:56.175Z,33.50
2018-02-16T17:21:00.660Z,21.20
2018-02-16T17:27:05.251Z,48.67
2018-02-16T17:33:09.850Z,32.23
2018-02-16T17:39:14.341Z,24.97
2018-02-16T17:45:18.820Z,16.90
2018-02-16T17:51:23.365Z,22.77
2018-02-16T17:57:28.632Z,15.83
2018-02-16T18:03:33.106Z,19.83
2018-02-16T18:09:37.637Z,21.57
2018-02-16T18:15:42.134Z,14.60
2018-02-16T18:21:46.618Z,11.63
2018-02-16T18:27:51.320Z,13.80
2018-02-16T18:33:55.804Z,18.83
2018-02-16T18:40:00.244Z,16.40
2018-02-16T18:46:04.725Z,23.73
2018-02-16T18:52:09.186Z,18.03
2018-02-16T18:58:13.651Z,26.30
2018-02-16T19:04:19.320Z,18.80
2018-02-16T19:10:23.816Z,38.40
2018-02-16T19:16:28.487Z,20.60
2018-02-16T19:22:33.841Z,23.83
2018-02-16T19:28:38.395Z,31.20
2018-02-16T19:34:43.107Z,26.73
2018-02-16T19:40:48.100Z,24.43
2018-02-16T19:46:52.826Z,25.27
2018-02-16T19:52:57.310Z,37.53
2018-02-16T19:59:02.542Z,19.00
2018-02-16T20:05:07.025Z,25.23
2018-02-16T20:11:11.506Z,29.53
2018-02-16T20:17:16.106Z,29.47
2018-02-16T20:23:21.729Z,20.67
2018-02-16T20:29:26.333Z,23.23
2018-02-16T20:35:31.569Z,25.67
2018-02-16T20:41:36.178Z,24.50
2018-02-16T20:47:40.678Z,32.83
2018-02-16T20:53:45.953Z,21.17
2018-02-16T20:59:51.661Z,27.00
2018-02-16T21:05:56.210Z,28.47
2018-02-16T21:12:00.682Z,28.53
2018-02-16T21:18:05.174Z,28.97
2018-02-16T21:24:09.651Z,25.80
2018-02-16T21:30:14.136Z,29.40
2018-02-16T21:36:18.602Z,29.03
2018-02-16T21:42:23.135Z,28.90
2018-02-16T21:48:27.796Z,20.10
2018-02-16T21:54:32.273Z,24.43
2018-02-16T22:00:37.721Z,30.93
2018-02-16T22:06:43.096Z,24.27
2018-02-16T22:12:47.614Z,22.80
2018-02-16T22:18:53.382Z,25.87
2018-02-16T22:24:57.872Z,23.40
2018-02-16T22:31:02.398Z,29.80
2018-02-16T22:37:06.990Z,30.30
2018-02-16T22:43:12.314Z,36.53
2018-02-16T22:49:16.894Z,41.97
2018-02-16T22:55:22.633Z,32.60
2018-02-16T23:01:27.308Z,41.53
2018-02-16T23:07:31.882Z,36.20
2018-02-16T23:13:36.804Z,29.27
2018-02-16T23:19:41.299Z,32.00
2018-02-16T23:25:46.573Z,24.37
2018-02-16T23:31:51.974Z,27.73
2018-02-16T23:37:56.474Z,24.30
2018-02-16T23:44:01.711Z,45.20
2018-02-16T23:50:06.256Z,30.77
2018-02-16T23:56:10.946Z,33.73
